Cape Canary — 7KAM — position and weather

sailwx.info

Track history (hours):
 
Tides and Currents Weather Stations Pressure Air Temp Water Temp Dewpoint Dewpoint Depression Visibility Wind Speed Wind Dir Waves Ship Positions

Cape Canary

Last reported at 2018-May-31 13:17 UTC. Time now 2018-Jun-20 19:16 UTC.
Position S 31°18' E 030°17'.
Warning: this ship's position is 20 days out of date.

Length 292 m; draft 10.2 m.

Type: Cargo ship. MMSI: 431501000.

Date/timePositionNaut miles runAvg speedWind from/ knotsBaromVisibWave heightAir tempDewpointWater temp
2018-May-31 13:17S 31°18' E 030°17'1611.6
2018-May-31 11:57S 31°07' E 030°31'511.0
2018-May-31 11:28S 31°04' E 030°36'711.3
2018-May-31 10:51S 30°60' E 030°42'512.5
2018-May-31 10:28S 30°57' E 030°46'713.1
2018-May-31 09:55S 30°52' E 030°52'613.6
2018-May-31 09:30S 30°47' E 030°57'815.1
2018-May-31 09:00S 30°42' E 031°03'815.5
2018-May-31 08:30S 30°36' E 031°08'815.8
2018-May-31 08:00S 30°30' E 031°14'815.8
2018-May-31 07:30S 30°24' E 031°21'915.7
2018-May-31 06:55S 30°17' E 031°28'615.6
2018-May-31 06:30S 30°13' E 031°33'815.2
2018-May-31 06:00S 30°08' E 031°40'714.3
2018-May-31 05:30S 30°05' E 031°47'813.9
2018-May-31 04:54S 30°02' E 031°56'  
Track history (hours):
 
Tides and Currents Weather Stations Pressure Air Temp Water Temp Dewpoint Dewpoint Depression Visibility Wind Speed Wind Dir Waves Ship Positions

Cape Canary

Last reported at 2018-May-31 13:17 UTC. Time now 2018-Jun-20 19:16 UTC.
Position S 31°18' E 030°17'.
Warning: this ship's position is 20 days out of date.

Length 292 m; draft 10.2 m.

Type: Cargo ship. MMSI: 431501000.

Date/timePositionNaut miles runAvg speedWind from/ knotsBaromVisibWave heightAir tempDewpointWater temp
2018-May-31 13:17S 31°18' E 030°17'1611.6
2018-May-31 11:57S 31°07' E 030°31'511.0
2018-May-31 11:28S 31°04' E 030°36'711.3
2018-May-31 10:51S 30°60' E 030°42'512.5
2018-May-31 10:28S 30°57' E 030°46'713.1
2018-May-31 09:55S 30°52' E 030°52'613.6
2018-May-31 09:30S 30°47' E 030°57'815.1
2018-May-31 09:00S 30°42' E 031°03'815.5
2018-May-31 08:30S 30°36' E 031°08'815.8
2018-May-31 08:00S 30°30' E 031°14'815.8
2018-May-31 07:30S 30°24' E 031°21'915.7
2018-May-31 06:55S 30°17' E 031°28'615.6
2018-May-31 06:30S 30°13' E 031°33'815.2
2018-May-31 06:00S 30°08' E 031°40'714.3
2018-May-31 05:30S 30°05' E 031°47'813.9
2018-May-31 04:54S 30°02' E 031°56'  

Dump ship's entire track history